Aviation Digital Data Service (ADDS)

Output produced by METARs form (0426 UTC 19 February 2019)
found at http://www.aviationweather.gov/metar/data/
 
Forecast for: RPMZ (ZAMBOANGA (CIV/A, PH)
Text: TAF RPMZ 182300Z 1900/1924 10006KT 9999 FEW017
Forecast period: 0000 UTC 19 February 2019 to 0000 UTC 20 February 2019
Forecast type: FROM: standard forecast or significant change
Winds: from the E (100 degrees) at 7 MPH (6 knots; 3.1 m/s)
Visibility: 6 or more miles 10+ km)
Ceiling: at least 12,000 feet AGL
Clouds: few clouds at 1700 feet AGL
Weather: no significant weather forecast for this period
Text: TEMPO 1902/1908 10012KT FEW016CB FEW017
Forecast period: 0200 to 0800 UTC 19 February 2019
Forecast type: TEMPORARY: The following changes expected for less than half the time period
Winds: from the E (100 degrees) at 14 MPH (12 knots; 6.2 m/s)
Visibility: missing
Ceiling: at least 12,000 feet AGL
Clouds: few clouds at 1600 feet AGL
few clouds at 1700 feet AGL
Weather: no significant weather forecast for this period
Text: TEMPO 1909/1913 27008KT
Forecast period: 0900 to 1300 UTC 19 February 2019
Forecast type: TEMPORARY: The following changes expected for less than half the time period
Winds: from the W (270 degrees) at 9 MPH (8 knots; 4.1 m/s)
Visibility: missing
Ceiling: unknown
Clouds: missing
Weather: no significant weather forecast for this period